Terminal Aerodrome Forecast
Issued by NWS

Current Version | Previous Version | Text Only | Print | Product List | Glossary On
Versions: 1 2 3 4 5 6 7 8 9 10 11 12 13 14 15 16 17 18
000
FTUS41 KLWX 181700
TAFMTN
TAF
KMTN 181738Z 1818/1918 29013KT P6SM BKN040
     FM182300 30009KT P6SM SCT150
     FM190600 29008KT P6SM BKN070
     FM191100 29007KT P6SM SCT050
     FM191600 31011KT P6SM SCT040=

USA.gov is the U.S. government's official web portal to all federal, state and local government web resources and services.